AirNav   Everest Fuels
 
 1438 users online  

CL04 Sky Way Estates Airport
Elk Grove, California, USA

GOING TO ELK GROVE?


FAA INFORMATION EFFECTIVE 02 DECEMBER 2021

Location

FAA Identifier: CL04
Lat/Long: 38-24-38.6780N 121-14-05.8120W
38-24.644633N 121-14.096867W
38.4107439,-121.2349478
(estimated)
Elevation: 92 ft. / 28 m (estimated)
Variation: 16E (1985)
From city: 7 miles E of ELK GROVE, CA
Time zone: UTC -8 (UTC -7 during Daylight Saving Time)
Zip code: 95693

Airport Operations

Airport use: Private use. Permission required prior to landing
Activation date: 11/1983
Control tower: no
ARTCC: OAKLAND CENTER
FSS: RANCHO MURIETA FLIGHT SERVICE STATION
Attendance: UNATNDD
Wind indicator: yes
Segmented circle: no

Airport Communications

WX AWOS-3PT at MHR (9 nm N): 118.325 (916-366-3371)
WX ASOS at SAC (14 nm NW): PHONE 916-421-0923
WX AWOS-3 at MCC (17 nm NW): 125.975 (916-641-1272)

Nearby radio navigation aids

VOR radial/distance  VOR name  Freq  Var
SACr081/15.0SACRAMENTO VORTAC115.2017E
MCCr136/17.3MC CLELLAN VOR/DME109.2017E
LINr315/22.9LINDEN VOR/DME114.8017E
HNWr213/29.6HANGTOWN VOR/DME115.5017E

Airport Services

Runway Information

Runway E/W

Dimensions: 1950 x 20 ft. / 594 x 6 m
Surface: asphalt
RUNWAY E  RUNWAY W
Traffic pattern: leftleft

Airport Ownership and Management from official FAA records

Ownership: Privately-owned
Owner: SKY WAY AIRPORT OWNERS
9529 ALTA MESA RD
WILTON, CA 95693
Phone 916-687-0483
Manager: WILLIAM D. CROWL
9529 ALTA MESA RD
WILTON, CA 95693
Phone 916-687-0483

Airport Operational Statistics

Aircraft based on the field: 8
Single engine airplanes: 8
    

Additional Remarks

FOR CD CTC NORCAL APCH AT 916-361-6874.

Instrument Procedures

There are no published instrument procedures at CL04.

Some nearby airports with instrument procedures:

KMHR - Sacramento Mather Airport (9 nm N)
1O3 - Lodi Airport (13 nm S)
KSAC - Sacramento Executive Airport (14 nm NW)
KMCC - Mc Clellan Airfield (17 nm NW)
KJAQ - Westover Field / Amador County Airport (21 nm E)
 
Loc | Ops | Rwys | IFR | FBO | Links
Com | Nav | Svcs | Stats | Notes
Area around CL04 (Sky Way Estates Airport)
 
Road maps at: MapQuest Bing Google
 
Aerial photo
WARNING: Photo may not be current or correct
Aerial photo of CL04 (Sky Way Estates Airport)
Do you have a better or more recent aerial photo of Sky Way Estates Airport that you would like to share? If so, please send us your photo.

 
Sectional chart

 
Airport distance calculator
Flying to Sky Way Estates Airport? Find the distance to fly.

From to CL04

Sunrise and sunset
Times for 06-Dec-2021
 Local
(UTC-8)
 Zulu
(UTC)
Morning civil twilight06:4014:40
Sunrise07:0915:09
Sunset16:4300:43
Evening civil twilight17:1301:13

Current date and time
Zulu (UTC)  06-Dec-2021 18:17:24
Local (UTC-8)  06-Dec-2021 10:17:24
 
METAR
KMHR 
8nm N 
061755Z AUTO 00000KT 9SM OVC012 09/08 A3019 RMK A01
KSAC 
14nm NW 
061753Z 00000KT 2 1/2SM BR OVC010 09/08 A3020 RMK AO2 SLP227 T00890078 10089 20078 53013
KMCC 
17nm NW 
061755Z AUTO 00000KT 5SM BR OVC010 09/08 A3020 RMK AO2
TAF
KMHR 
8nm N 
061736Z 0618/0718 VRB03KT 6SM BR OVC015 FM062200 14004KT 6SM -SHRA BR SCT015 OVC050 FM070000 VRB03KT 4SM -SHRA BR OVC015 FM070800 VRB03KT 6SM BR OVC015 FM071200 VRB04KT 4SM BR BKN009
KSAC 
14nm NW 
061141Z 0612/0712 VRB03KT 5SM BR OVC015 FM062200 VRB03KT 6SM -SHRA BR SCT015 OVC050 FM070000 VRB03KT 4SM -SHRA BR OVC015 FM070800 34003KT P6SM OVC015
KMCC 
17nm NW 
061736Z 0618/0718 VRB03KT 5SM BR OVC015 TEMPO 0618/0621 6SM BR FM062100 17004KT 6SM -SHRA BR SCT015 OVC050 FM070000 VRB03KT 4SM -SHRA BR OVC015 FM070800 32004KT 6SM BR OVC015 FM071200 VRB04KT 4SM BR BKN009
NOTAMs
Click for the latest NOTAMs
NOTAMs are issued by the DoD/FAA and will open in a separate window not controlled by AirNav.

 

 
 

Would you like to see your business listed on this page?

 If your business provides an interesting product or service to pilots, flight crews, aircraft, or users of the Sky Way Estates Airport, you should consider listing it here.  To start the listing process, click on the button below
 
Add a business
 

Other Pages about Sky Way Estates Airport

Update a link
 
Copyright © AirNav, LLC. All rights reserved. Privacy Policy  Contact